createdAt,value
2018-09-11T00:01:31.274Z,98596.28
2018-09-11T00:04:00.103Z,98595.81
2018-09-11T00:06:28.765Z,98601.70
2018-09-11T00:08:57.441Z,98592.72
2018-09-11T00:11:26.274Z,98589.83
2018-09-11T00:13:54.949Z,98589.13
2018-09-11T00:16:23.844Z,98582.00
2018-09-11T00:18:52.511Z,98585.13
2018-09-11T00:21:21.307Z,98593.39
2018-09-11T00:23:49.965Z,98587.38
2018-09-11T00:26:18.797Z,98586.48
2018-09-11T00:28:48.009Z,98587.61
2018-09-11T00:31:16.729Z,98586.58
2018-09-11T00:33:45.447Z,98586.68
2018-09-11T00:36:14.139Z,98585.86
2018-09-11T00:38:43.745Z,98594.66
2018-09-11T00:41:13.386Z,98594.19
2018-09-11T00:43:42.928Z,98599.88
2018-09-11T00:46:11.651Z,98599.31
2018-09-11T00:48:40.346Z,98595.32
2018-09-11T00:51:09.110Z,98589.64
2018-09-11T00:53:38.125Z,98595.79
2018-09-11T00:56:06.897Z,98599.56
2018-09-11T00:58:35.655Z,98596.94
2018-09-11T01:01:04.411Z,98594.04
2018-09-11T01:03:33.093Z,98591.17
2018-09-11T01:06:02.102Z,98589.58
2018-09-11T01:08:30.970Z,98589.41
2018-09-11T01:10:59.740Z,98585.25
2018-09-11T01:13:28.453Z,98588.60
2018-09-11T01:15:57.114Z,98590.20
2018-09-11T01:18:25.793Z,98584.28
2018-09-11T01:20:54.561Z,98584.03
2018-09-11T01:23:23.249Z,98585.86
2018-09-11T01:25:51.962Z,98594.30
2018-09-11T01:28:20.686Z,98603.34
2018-09-11T01:30:49.486Z,98605.36
2018-09-11T01:33:18.188Z,98598.31
2018-09-11T01:35:46.859Z,98599.17
2018-09-11T01:38:15.619Z,98607.61
2018-09-11T01:40:44.376Z,98608.47
2018-09-11T01:43:13.306Z,98608.00
2018-09-11T01:45:42.060Z,98612.33
2018-09-11T01:48:10.763Z,98618.09
2018-09-11T01:50:39.469Z,98626.98
2018-09-11T01:53:08.198Z,98631.58
2018-09-11T01:55:36.889Z,98627.46
2018-09-11T01:58:06.106Z,98632.11
2018-09-11T02:00:34.753Z,98634.13
2018-09-11T02:03:03.435Z,98636.28
2018-09-11T02:05:32.245Z,98627.70
2018-09-11T02:08:01.357Z,98634.27
2018-09-11T02:10:30.029Z,98634.36
2018-09-11T02:12:58.673Z,98636.75
2018-09-11T02:15:27.380Z,98637.23
2018-09-11T02:17:56.090Z,98631.22
2018-09-11T02:20:25.238Z,98639.56
2018-09-11T02:22:54.009Z,98640.80
2018-09-11T02:25:22.714Z,98647.75
2018-09-11T02:27:52.206Z,98645.75
2018-09-11T02:30:21.394Z,98655.18
2018-09-11T02:32:50.247Z,98649.55
2018-09-11T02:35:18.919Z,98650.11
2018-09-11T02:37:47.646Z,98653.80
2018-09-11T02:40:16.674Z,98655.30
2018-09-11T02:42:45.338Z,98654.23
2018-09-11T02:45:14.019Z,98652.69
2018-09-11T02:47:42.643Z,98651.24
2018-09-11T02:50:11.373Z,98658.05
2018-09-11T02:52:40.097Z,98660.05
2018-09-11T02:55:09.433Z,98666.28
2018-09-11T02:57:38.190Z,98675.41
2018-09-11T03:00:07.617Z,98670.70
2018-09-11T03:02:36.413Z,98675.74
2018-09-11T03:05:05.208Z,98679.27
2018-09-11T03:07:33.949Z,98676.11
2018-09-11T03:10:02.854Z,98675.63
2018-09-11T03:12:31.659Z,98679.79
2018-09-11T03:15:00.301Z,98673.59
2018-09-11T03:17:29.023Z,98683.86
2018-09-11T03:19:57.913Z,98681.95
2018-09-11T03:22:26.803Z,98684.11
2018-09-11T03:24:55.670Z,98686.83
2018-09-11T03:27:24.390Z,98689.30
2018-09-11T03:29:53.142Z,98701.03
2018-09-11T03:32:21.810Z,98695.50
2018-09-11T03:34:50.949Z,98697.66
2018-09-11T03:37:19.951Z,98696.63
2018-09-11T03:39:48.929Z,98696.34
2018-09-11T03:42:17.732Z,98704.14
2018-09-11T03:44:46.397Z,98698.85
2018-09-11T03:47:15.141Z,98695.94
2018-09-11T03:49:43.921Z,98701.57
2018-09-11T03:52:12.602Z,98716.45
2018-09-11T03:54:41.368Z,98719.66
2018-09-11T03:57:10.003Z,98712.37
2018-09-11T03:59:38.825Z,98715.94
2018-09-11T04:02:07.532Z,98710.82
2018-09-11T04:04:36.544Z,98706.50
2018-09-11T04:07:05.430Z,98715.09
2018-09-11T04:09:34.157Z,98715.09
2018-09-11T04:12:03.285Z,98714.78
2018-09-11T04:14:32.145Z,98707.22
2018-09-11T04:17:00.913Z,98710.13
2018-09-11T04:19:29.636Z,98716.39
2018-09-11T04:21:58.373Z,98711.11
2018-09-11T04:24:27.156Z,98715.77
2018-09-11T04:26:55.864Z,98714.59
2018-09-11T04:29:31.161Z,98717.09
2018-09-11T04:31:59.832Z,98716.86
2018-09-11T04:34:28.567Z,98713.76
2018-09-11T04:36:57.234Z,98715.19
2018-09-11T04:39:26.021Z,98706.80
2018-09-11T04:41:54.913Z,98700.53
2018-09-11T04:44:23.700Z,98700.91
2018-09-11T04:46:52.384Z,98702.16
2018-09-11T04:49:21.284Z,98699.69
2018-09-11T04:51:50.307Z,98697.97
2018-09-11T04:54:19.166Z,98698.08
2018-09-11T04:56:47.979Z,98698.47
2018-09-11T04:59:16.707Z,98693.73
2018-09-11T05:01:45.390Z,98699.31
2018-09-11T05:04:14.133Z,98704.84
2018-09-11T05:06:42.958Z,98706.76
2018-09-11T05:09:12.586Z,98707.94
2018-09-11T05:11:41.245Z,98705.23
2018-09-11T05:14:10.089Z,98705.89
2018-09-11T05:16:39.057Z,98707.08
2018-09-11T05:19:07.875Z,98715.64
2018-09-11T05:21:36.628Z,98713.27
2018-09-11T05:24:05.366Z,98721.04
2018-09-11T05:26:34.144Z,98715.74
2018-09-11T05:29:02.995Z,98723.40
2018-09-11T05:31:32.223Z,98721.44
2018-09-11T05:34:01.115Z,98724.53
2018-09-11T05:36:29.791Z,98726.14
2018-09-11T05:38:58.510Z,98725.27
2018-09-11T05:41:27.176Z,98732.58
2018-09-11T05:43:56.058Z,98731.42
2018-09-11T05:46:24.906Z,98730.91
2018-09-11T05:48:53.619Z,98731.81
2018-09-11T05:51:22.458Z,98736.58
2018-09-11T05:53:51.330Z,98736.74
2018-09-11T05:56:20.830Z,98747.02
2018-09-11T05:58:49.734Z,98743.86
2018-09-11T06:01:18.614Z,98744.78
2018-09-11T06:03:47.341Z,98743.75
2018-09-11T06:06:16.273Z,98742.50
2018-09-11T06:08:45.244Z,98748.48
2018-09-11T06:11:13.934Z,98749.21
2018-09-11T06:13:42.577Z,98747.75
2018-09-11T06:16:11.712Z,98749.70
2018-09-11T06:18:40.546Z,98747.35
2018-09-11T06:21:09.290Z,98749.94
2018-09-11T06:23:38.332Z,98748.65
2018-09-11T06:26:08.310Z,98757.40
2018-09-11T06:28:37.105Z,98750.69
2018-09-11T06:31:06.318Z,98752.81
2018-09-11T06:33:35.109Z,98753.14
2018-09-11T06:36:04.014Z,98750.52
2018-09-11T06:38:32.734Z,98755.31
2018-09-11T06:41:01.399Z,98760.52
2018-09-11T06:43:30.686Z,98754.84
2018-09-11T06:45:59.754Z,98768.38
2018-09-11T06:48:28.389Z,98768.70
2018-09-11T06:50:57.078Z,98767.76
2018-09-11T06:53:27.045Z,98770.15
2018-09-11T06:55:55.716Z,98777.05
2018-09-11T06:58:24.360Z,98776.16
2018-09-11T07:00:53.363Z,98781.63
2018-09-11T07:03:22.050Z,98786.13
2018-09-11T07:05:50.778Z,98781.55
2018-09-11T07:08:19.652Z,98781.20
2018-09-11T07:10:48.386Z,98775.11
2018-09-11T07:13:17.027Z,98775.36
2018-09-11T07:15:45.692Z,98775.36
2018-09-11T07:18:14.557Z,98778.55
2018-09-11T07:20:43.270Z,98773.42
2018-09-11T07:23:12.038Z,98775.31
2018-09-11T07:25:40.785Z,98774.48
2018-09-11T07:28:09.431Z,98780.94
2018-09-11T07:30:38.292Z,98786.13
2018-09-11T07:33:07.178Z,98782.90
2018-09-11T07:35:35.966Z,98785.52
2018-09-11T07:38:04.740Z,98795.03
2018-09-11T07:40:33.536Z,98793.09
2018-09-11T07:43:02.300Z,98789.16
2018-09-11T07:45:31.266Z,98799.92
2018-09-11T07:48:00.011Z,98795.19
2018-09-11T07:50:28.763Z,98797.96
2018-09-11T07:52:57.511Z,98795.54
2018-09-11T07:55:26.249Z,98801.45
2018-09-11T07:57:55.094Z,98806.56
2018-09-11T08:00:24.133Z,98808.95
2018-09-11T08:02:52.923Z,98805.91
2018-09-11T08:05:21.691Z,98802.53
2018-09-11T08:07:50.287Z,98807.17
2018-09-11T08:10:19.118Z,98808.83
2018-09-11T08:12:48.215Z,98819.14
2018-09-11T08:15:17.172Z,98812.86
2018-09-11T08:17:45.885Z,98815.98
2018-09-11T08:20:14.786Z,98817.01
2018-09-11T08:22:43.678Z,98817.01
2018-09-11T08:25:12.466Z,98810.98
2018-09-11T08:27:41.296Z,98798.33
2018-09-11T08:30:10.023Z,98804.63
2018-09-11T08:32:38.868Z,98800.04
2018-09-11T08:35:07.949Z,98803.23
2018-09-11T08:37:36.619Z,98801.41
2018-09-11T08:40:06.010Z,98795.34
2018-09-11T08:42:34.794Z,98806.98
2018-09-11T08:45:03.653Z,98803.70
2018-09-11T08:47:32.478Z,98797.16
2018-09-11T08:50:01.353Z,98800.70
2018-09-11T08:52:30.155Z,98797.63
2018-09-11T08:54:58.866Z,98793.87
2018-09-11T08:57:27.710Z,98798.98
2018-09-11T08:59:56.414Z,98792.92
2018-09-11T09:02:25.121Z,98790.25
2018-09-11T09:04:54.018Z,98792.41
2018-09-11T09:07:22.774Z,98801.75
2018-09-11T09:09:53.384Z,98798.09
2018-09-11T09:12:22.316Z,98802.33
2018-09-11T09:14:51.115Z,98794.78
2018-09-11T09:17:19.881Z,98796.80
2018-09-11T09:19:48.651Z,98795.77
2018-09-11T09:22:17.793Z,98800.97
2018-09-11T09:24:46.591Z,98792.19
2018-09-11T09:27:15.351Z,98789.23
2018-09-11T09:29:44.108Z,98782.38
2018-09-11T09:32:12.938Z,98790.81
2018-09-11T09:34:41.810Z,98788.45
2018-09-11T09:37:10.999Z,98770.95
2018-09-11T09:39:40.029Z,98777.76
2018-09-11T09:42:08.770Z,98778.41
2018-09-11T09:44:37.726Z,98769.36
2018-09-11T09:47:06.497Z,98768.66
2018-09-11T09:49:35.295Z,98761.14
2018-09-11T09:52:04.068Z,98760.41
2018-09-11T09:54:32.693Z,98771.19
2018-09-11T09:57:01.386Z,98764.66
2018-09-11T09:59:30.023Z,98763.30
2018-09-11T10:02:03.225Z,98766.41
2018-09-11T10:04:32.822Z,98778.84
2018-09-11T10:07:01.832Z,98774.70
2018-09-11T10:09:30.957Z,98769.38
2018-09-11T10:11:59.669Z,98774.30
2018-09-11T10:14:28.559Z,98767.52
2018-09-11T10:16:57.198Z,98766.95
2018-09-11T10:19:26.261Z,98762.98
2018-09-11T10:21:55.051Z,98756.38
2018-09-11T10:24:23.959Z,98754.84
2018-09-11T10:26:52.864Z,98754.89
2018-09-11T10:29:22.053Z,98760.40
2018-09-11T10:31:50.709Z,98752.09
2018-09-11T10:34:19.491Z,98750.72
2018-09-11T10:36:48.205Z,98749.56
2018-09-11T10:39:17.059Z,98743.38
2018-09-11T10:41:45.800Z,98740.69
2018-09-11T10:44:14.540Z,98733.95
2018-09-11T10:46:43.491Z,98753.59
2018-09-11T10:49:12.202Z,98739.88
2018-09-11T10:51:40.972Z,98743.31
2018-09-11T10:54:09.714Z,98738.58
2018-09-11T10:56:38.458Z,98736.64
2018-09-11T10:59:07.216Z,98735.76
2018-09-11T11:01:35.950Z,98735.76
2018-09-11T11:04:04.999Z,98732.41
2018-09-11T11:06:33.670Z,98732.42
2018-09-11T11:09:02.373Z,98735.55
2018-09-11T11:11:31.598Z,98734.00
2018-09-11T11:14:00.350Z,98735.03
2018-09-11T11:16:28.999Z,98728.48
2018-09-11T11:18:57.834Z,98726.63
2018-09-11T11:21:26.593Z,98727.28
2018-09-11T11:23:55.466Z,98723.73
2018-09-11T11:26:24.130Z,98716.08
2018-09-11T11:28:52.857Z,98707.66
2018-09-11T11:31:21.713Z,98721.83
2018-09-11T11:33:50.509Z,98713.63
2018-09-11T11:36:19.863Z,98713.72
2018-09-11T11:38:48.356Z,98716.20
2018-09-11T11:41:17.410Z,98716.53
2018-09-11T11:43:46.543Z,98709.10
2018-09-11T11:46:15.203Z,98709.19
2018-09-11T11:48:52.988Z,98703.53
2018-09-11T11:51:21.947Z,98705.90
2018-09-11T11:53:50.637Z,98701.86
2018-09-11T11:56:19.498Z,98707.84
2018-09-11T11:58:48.254Z,98699.61
2018-09-11T12:01:16.996Z,98698.82
2018-09-11T12:03:45.854Z,98692.17
2018-09-11T12:06:15.168Z,98676.38
2018-09-11T12:08:44.114Z,98682.31
2018-09-11T12:11:13.101Z,98679.98
2018-09-11T12:13:41.904Z,98673.25
2018-09-11T12:16:10.634Z,98673.59
2018-09-11T12:18:39.272Z,98673.72
2018-09-11T12:21:08.406Z,98665.30
2018-09-11T12:23:37.250Z,98662.29
2018-09-11T12:26:06.150Z,98655.17
2018-09-11T12:28:34.789Z,98671.45
2018-09-11T12:31:03.604Z,98662.56
2018-09-11T12:33:32.458Z,98665.14
2018-09-11T12:36:01.109Z,98657.34
2018-09-11T12:38:29.818Z,98645.95
2018-09-11T12:40:58.743Z,98655.38
2018-09-11T12:43:27.478Z,98650.84
2018-09-11T12:45:56.639Z,98651.02
2018-09-11T12:48:25.367Z,98647.67
2018-09-11T12:50:54.086Z,98646.28
2018-09-11T12:53:22.847Z,98633.86
2018-09-11T12:55:51.579Z,98628.02
2018-09-11T12:58:20.454Z,98629.80
2018-09-11T13:00:49.241Z,98623.25
2018-09-11T13:03:17.998Z,98624.16
2018-09-11T13:05:46.749Z,98635.45
2018-09-11T13:08:15.418Z,98628.16
2018-09-11T13:10:44.335Z,98629.31
2018-09-11T13:13:13.049Z,98631.12
2018-09-11T13:15:41.709Z,98631.91
2018-09-11T13:18:10.407Z,98624.91
2018-09-11T13:20:39.157Z,98632.02
2018-09-11T13:23:08.181Z,98624.19
2018-09-11T13:25:37.105Z,98617.69
2018-09-11T13:28:06.150Z,98613.20
2018-09-11T13:30:34.922Z,98616.53
2018-09-11T13:33:03.905Z,98621.64
2018-09-11T13:35:32.797Z,98602.77
2018-09-11T13:38:01.643Z,98620.56
2018-09-11T13:40:30.421Z,98611.43
2018-09-11T13:42:59.370Z,98626.96
2018-09-11T13:45:28.290Z,98618.03
2018-09-11T13:47:57.399Z,98615.90
2018-09-11T13:50:26.034Z,98608.63
2018-09-11T13:52:54.984Z,98601.35
2018-09-11T13:55:23.698Z,98602.66
2018-09-11T13:57:52.379Z,98596.74
2018-09-11T14:00:21.513Z,98599.89
2018-09-11T14:02:50.264Z,98602.22
2018-09-11T14:05:18.986Z,98608.13
2018-09-11T14:07:47.833Z,98594.81
2018-09-11T14:10:16.529Z,98597.74
2018-09-11T14:12:45.207Z,98598.87
2018-09-11T14:15:13.953Z,98599.89
2018-09-11T14:17:42.686Z,98598.56
2018-09-11T14:20:12.039Z,98597.63
2018-09-11T14:22:41.209Z,98599.17
2018-09-11T14:25:09.982Z,98599.83
2018-09-11T14:27:38.638Z,98596.95
2018-09-11T14:30:07.378Z,98589.39
2018-09-11T14:32:36.354Z,98607.63
2018-09-11T14:35:05.240Z,98595.92
2018-09-11T14:37:34.126Z,98594.56
2018-09-11T14:40:03.348Z,98603.86
2018-09-11T14:42:31.995Z,98595.55
2018-09-11T14:45:00.701Z,98596.91
2018-09-11T14:47:33.514Z,98592.51
2018-09-11T14:50:02.326Z,98594.28
2018-09-11T14:52:31.084Z,98596.02
2018-09-11T14:54:59.734Z,98596.81
2018-09-11T14:57:28.812Z,98595.61
2018-09-11T14:59:57.733Z,98591.45
2018-09-11T15:02:26.445Z,98589.27
2018-09-11T15:04:55.734Z,98588.70
2018-09-11T15:07:24.842Z,98585.30
2018-09-11T15:09:53.847Z,98586.43
2018-09-11T15:12:22.565Z,98590.83
2018-09-11T15:14:51.426Z,98592.39
2018-09-11T15:17:20.105Z,98591.08
2018-09-11T15:19:48.801Z,98585.48
2018-09-11T15:22:17.489Z,98584.05
2018-09-11T15:24:46.290Z,98581.39
2018-09-11T15:27:15.039Z,98581.55
2018-09-11T15:29:43.981Z,98586.16
2018-09-11T15:32:12.707Z,98586.25
2018-09-11T15:34:41.593Z,98588.21
2018-09-11T15:37:10.264Z,98583.08
2018-09-11T15:39:38.981Z,98578.36
2018-09-11T15:42:07.660Z,98580.84
2018-09-11T15:44:36.342Z,98582.55
2018-09-11T15:47:05.033Z,98574.04
2018-09-11T15:49:33.758Z,98577.95
2018-09-11T15:52:02.430Z,98580.44
2018-09-11T15:54:31.374Z,98578.30
2018-09-11T15:57:00.139Z,98580.23
2018-09-11T15:59:28.861Z,98577.88
2018-09-11T16:01:57.599Z,98573.80
2018-09-11T16:04:26.995Z,98574.77
2018-09-11T16:06:55.786Z,98572.70
2018-09-11T16:09:24.563Z,98563.61
2018-09-11T16:11:53.259Z,98562.53
2018-09-11T16:14:22.027Z,98555.27
2018-09-11T16:16:51.258Z,98557.41
2018-09-11T16:19:20.101Z,98551.94
2018-09-11T16:21:49.307Z,98548.20
2018-09-11T16:24:18.062Z,98547.20
2018-09-11T16:26:46.766Z,98550.95
2018-09-11T16:29:15.597Z,98546.03
2018-09-11T16:31:44.280Z,98546.14
2018-09-11T16:34:13.150Z,98554.83
2018-09-11T16:36:41.972Z,98556.49
2018-09-11T16:39:12.500Z,98551.39
2018-09-11T16:41:41.562Z,98552.06
2018-09-11T16:44:10.317Z,98556.22
2018-09-11T16:46:39.482Z,98557.25
2018-09-11T16:49:08.891Z,98557.73
2018-09-11T16:51:38.013Z,98550.22
2018-09-11T16:54:07.076Z,98549.18
2018-09-11T16:56:35.842Z,98542.46
2018-09-11T16:59:04.958Z,98542.61
2018-09-11T17:01:33.659Z,98547.66
2018-09-11T17:04:02.307Z,98546.94
2018-09-11T17:06:31.012Z,98543.18
2018-09-11T17:08:59.659Z,98545.39
2018-09-11T17:11:28.491Z,98543.55
2018-09-11T17:13:57.231Z,98541.12
2018-09-11T17:16:25.925Z,98532.84
2018-09-11T17:18:54.681Z,98538.45
2018-09-11T17:21:23.402Z,98534.64
2018-09-11T17:23:52.180Z,98545.36
2018-09-11T17:26:20.900Z,98534.15
2018-09-11T17:28:49.938Z,98546.64
2018-09-11T17:31:18.881Z,98550.75
2018-09-11T17:33:47.991Z,98538.04
2018-09-11T17:36:16.766Z,98531.67
2018-09-11T17:38:45.581Z,98544.19
2018-09-11T17:41:14.375Z,98543.70
2018-09-11T17:43:43.027Z,98541.23
2018-09-11T17:46:11.720Z,98544.74
2018-09-11T17:48:40.466Z,98544.19
2018-09-11T17:51:09.133Z,98543.85
2018-09-11T17:53:37.959Z,98548.42
2018-09-11T17:56:07.058Z,98544.59
2018-09-11T17:58:35.768Z,98554.50
2018-09-11T18:01:04.515Z,98554.77
2018-09-11T18:03:33.237Z,98556.23
2018-09-11T18:06:02.156Z,98555.81
2018-09-11T18:08:30.917Z,98558.66
2018-09-11T18:10:59.640Z,98563.09
2018-09-11T18:13:28.327Z,98557.48
2018-09-11T18:15:57.091Z,98561.95
2018-09-11T18:18:26.027Z,98573.30
2018-09-11T18:20:55.367Z,98567.68
2018-09-11T18:23:24.274Z,98573.93
2018-09-11T18:25:53.451Z,98578.88
2018-09-11T18:28:22.154Z,98584.63
2018-09-11T18:30:51.286Z,98583.45
2018-09-11T18:33:20.076Z,98584.26
2018-09-11T18:35:48.818Z,98587.46
2018-09-11T18:38:17.554Z,98592.60
2018-09-11T18:40:46.438Z,98598.09
2018-09-11T18:43:15.208Z,98603.11
2018-09-11T18:45:43.902Z,98611.20
2018-09-11T18:48:12.902Z,98606.53
2018-09-11T18:50:41.596Z,98610.92
2018-09-11T18:53:10.253Z,98608.16
2018-09-11T18:55:38.950Z,98616.98
2018-09-11T18:58:07.730Z,98620.92
2018-09-11T19:00:36.539Z,98621.91
2018-09-11T19:03:05.273Z,98631.67
2018-09-11T19:05:33.934Z,98629.55
2018-09-11T19:08:02.809Z,98630.48
2018-09-11T19:10:31.890Z,98626.84
2018-09-11T19:13:00.654Z,98632.87
2018-09-11T19:15:29.782Z,98634.56
2018-09-11T19:17:58.578Z,98632.45
2018-09-11T19:20:27.531Z,98635.58
2018-09-11T19:22:56.241Z,98640.08
2018-09-11T19:25:24.963Z,98633.83
2018-09-11T19:27:55.401Z,98633.39
2018-09-11T19:30:24.067Z,98630.45
2018-09-11T19:32:52.801Z,98630.22
2018-09-11T19:35:21.844Z,98629.44
2018-09-11T19:37:50.631Z,98632.52
2018-09-11T19:40:19.391Z,98630.94
2018-09-11T19:42:48.138Z,98631.64
2018-09-11T19:45:16.867Z,98624.59
2018-09-11T19:47:45.578Z,98628.71
2018-09-11T19:50:14.447Z,98633.27
2018-09-11T19:52:43.059Z,98635.94
2018-09-11T19:55:11.865Z,98635.36
2018-09-11T19:57:40.653Z,98641.10
2018-09-11T20:00:09.389Z,98640.41
2018-09-11T20:02:38.145Z,98640.41
2018-09-11T20:05:07.425Z,98638.84
2018-09-11T20:07:36.186Z,98641.80
2018-09-11T20:10:05.072Z,98641.55
2018-09-11T20:12:33.991Z,98634.91
2018-09-11T20:15:02.703Z,98634.72
2018-09-11T20:17:31.418Z,98638.80
2018-09-11T20:20:00.272Z,98631.05
2018-09-11T20:22:29.012Z,98631.48
2018-09-11T20:24:57.900Z,98630.33
2018-09-11T20:27:26.709Z,98634.33
2018-09-11T20:29:55.524Z,98639.66
2018-09-11T20:32:24.505Z,98635.80
2018-09-11T20:34:53.266Z,98635.44
2018-09-11T20:37:22.280Z,98631.06
2018-09-11T20:39:50.972Z,98629.16
2018-09-11T20:42:19.674Z,98634.61
2018-09-11T20:44:48.562Z,98636.94
2018-09-11T20:47:17.405Z,98640.34
2018-09-11T20:49:46.151Z,98639.08
2018-09-11T20:52:15.121Z,98641.59
2018-09-11T20:54:43.978Z,98644.33
2018-09-11T20:57:12.675Z,98648.17
2018-09-11T20:59:42.269Z,98648.52
2018-09-11T21:02:11.167Z,98642.13
2018-09-11T21:04:40.201Z,98647.68
2018-09-11T21:07:08.910Z,98657.13
2018-09-11T21:09:37.721Z,98654.03
2018-09-11T21:12:06.391Z,98648.67
2018-09-11T21:14:35.114Z,98655.50
2018-09-11T21:17:04.017Z,98656.72
2018-09-11T21:19:32.685Z,98659.87
2018-09-11T21:22:02.013Z,98664.27
2018-09-11T21:24:30.773Z,98663.20
2018-09-11T21:26:59.450Z,98659.86
2018-09-11T21:29:28.149Z,98671.08
2018-09-11T21:31:56.823Z,98669.59
2018-09-11T21:34:25.639Z,98668.33
2018-09-11T21:36:54.452Z,98667.14
2018-09-11T21:39:23.198Z,98676.95
2018-09-11T21:41:51.958Z,98670.23
2018-09-11T21:44:20.664Z,98676.11
2018-09-11T21:46:49.385Z,98672.19
2018-09-11T21:49:18.033Z,98669.09
2018-09-11T21:51:51.943Z,98668.08
2018-09-11T21:54:20.753Z,98673.64
2018-09-11T21:56:49.426Z,98676.02
2018-09-11T21:59:18.096Z,98676.98
2018-09-11T22:01:54.287Z,98676.52
2018-09-11T22:04:23.583Z,98676.02
2018-09-11T22:06:52.276Z,98681.28
2018-09-11T22:09:20.928Z,98681.14
2018-09-11T22:11:49.697Z,98681.48
2018-09-11T22:14:18.565Z,98679.72
2018-09-11T22:16:47.310Z,98682.84
2018-09-11T22:19:16.164Z,98682.54
2018-09-11T22:21:44.801Z,98680.00
2018-09-11T22:24:13.473Z,98675.91
2018-09-11T22:26:42.354Z,98677.28
2018-09-11T22:29:11.099Z,98677.67
2018-09-11T22:31:39.845Z,98677.34
2018-09-11T22:34:08.541Z,98680.06
2018-09-11T22:36:37.349Z,98680.64
2018-09-11T22:39:08.251Z,98683.14
2018-09-11T22:41:36.981Z,98685.86
2018-09-11T22:44:05.654Z,98685.62
2018-09-11T22:46:34.565Z,98686.52
2018-09-11T22:49:03.325Z,98689.08
2018-09-11T22:51:32.135Z,98686.67
2018-09-11T22:54:00.925Z,98682.51
2018-09-11T22:56:29.573Z,98692.94
2018-09-11T22:58:58.293Z,98688.05
2018-09-11T23:01:26.930Z,98685.90
2018-09-11T23:03:55.674Z,98692.06
2018-09-11T23:06:24.423Z,98687.00
2018-09-11T23:08:53.305Z,98683.15
2018-09-11T23:11:22.146Z,98684.70
2018-09-11T23:13:50.801Z,98680.61
2018-09-11T23:16:19.455Z,98678.27
2018-09-11T23:18:48.265Z,98687.56
2018-09-11T23:21:16.889Z,98672.73
2018-09-11T23:23:46.082Z,98679.87
2018-09-11T23:26:14.777Z,98679.48
2018-09-11T23:28:43.634Z,98676.25
2018-09-11T23:31:12.334Z,98676.58
2018-09-11T23:33:40.989Z,98675.30
2018-09-11T23:36:09.825Z,98671.12
2018-09-11T23:38:38.531Z,98671.54
2018-09-11T23:41:08.875Z,98678.08
2018-09-11T23:43:38.477Z,98675.77
2018-09-11T23:46:08.018Z,98672.23
2018-09-11T23:48:36.801Z,98676.94
2018-09-11T23:51:06.257Z,98676.70
2018-09-11T23:53:35.699Z,98677.50
2018-09-11T23:56:05.538Z,98672.34
2018-09-11T23:58:34.941Z,98670.83
